Terminal Aerodrome Forecast
Issued by NWS

Home | Current Version | Previous Version | Text Only | Print | Product List | Glossary On
Versions: 1 2 3 4 5 6 7 8 9 10 11 12 13 14 15 16 17 18 19 20 21 22 23 24 25 26 27 28 29 30 31 32 33 34 35 36 37 38 39 40 41 42
000
FTUS43 KDDC 211128
TAFHYS
TAF
KHYS 211128Z 2112/2212 VRB04KT 3SM BR SKC
     FM211300 VRB04KT 5SM BR SCT100
     FM211500 10005KT P6SM OVC100
     FM220700 14012KT P6SM -SHRA OVC030=

USA.gov is the U.S. government's official web portal to all federal, state and local government web resources and services.